createdAt,value
2022-08-09T08:39:00.654Z,92.50
2022-08-09T08:42:47.410Z,91.80
2022-08-09T08:45:17.718Z,91.80
2022-08-09T08:48:06.883Z,92.70
2022-08-09T08:50:38.661Z,91.90
2022-08-09T08:53:11.828Z,91.10
2022-08-09T08:55:45.503Z,91.10
2022-08-09T08:58:13.714Z,91.30
2022-08-09T09:00:42.841Z,91.00
2022-08-09T09:03:20.819Z,91.20
2022-08-09T09:06:05.009Z,91.60
2022-08-09T09:08:40.679Z,90.70
2022-08-09T09:11:13.866Z,90.30
2022-08-09T09:13:57.376Z,90.90
2022-08-09T09:16:31.259Z,90.50
2022-08-09T09:22:03.778Z,89.60
2022-08-09T09:24:34.675Z,88.90
2022-08-09T09:27:05.045Z,88.50
2022-08-09T09:29:57.980Z,89.40
2022-08-09T09:32:34.294Z,89.70
2022-08-09T09:35:07.597Z,87.50
2022-08-09T09:37:40.454Z,87.30
2022-08-09T09:40:11.866Z,87.00
2022-08-09T09:42:46.025Z,86.50
2022-08-09T09:45:25.753Z,86.70
2022-08-09T09:47:59.053Z,88.10
2022-08-09T09:50:49.226Z,87.90
2022-08-09T09:53:21.351Z,88.10
2022-08-09T09:56:04.147Z,89.40
2022-08-09T09:58:47.365Z,88.40
2022-08-09T10:01:35.863Z,86.90
2022-08-09T10:04:15.982Z,89.10
2022-08-09T10:06:52.094Z,88.00
2022-08-09T10:09:24.134Z,87.20
2022-08-09T10:12:12.354Z,87.30
2022-08-09T10:14:49.334Z,87.90
2022-08-09T10:17:50.775Z,88.10
2022-08-09T10:20:33.125Z,87.60
2022-08-09T10:23:20.443Z,89.20
2022-08-09T10:26:04.866Z,86.80
2022-08-09T10:28:37.844Z,87.30
2022-08-09T10:34:08.566Z,85.80
2022-08-09T10:36:39.860Z,86.50
2022-08-09T10:39:13.978Z,86.20
2022-08-09T10:41:47.475Z,86.90
2022-08-09T10:44:19.442Z,88.60
2022-08-09T10:48:16.228Z,88.60
2022-08-09T10:50:14.774Z,88.60
2022-08-09T10:53:10.637Z,89.80
2022-08-09T10:55:58.585Z,90.20
2022-08-09T10:58:33.762Z,90.50
2022-08-09T11:03:06.967Z,90.60
2022-08-09T11:04:19.822Z,90.80
2022-08-09T11:07:57.448Z,90.40
2022-08-09T11:10:17.631Z,90.30
2022-08-09T11:13:49.180Z,90.60
2022-08-09T11:16:37.260Z,90.50
2022-08-09T11:19:10.437Z,90.20
2022-08-09T11:22:10.456Z,90.50
2022-08-09T11:25:08.969Z,90.80
2022-08-09T11:28:03.664Z,90.80
2022-08-09T11:30:36.217Z,90.80
2022-08-09T11:33:06.733Z,90.70
2022-08-09T11:35:48.983Z,90.40
2022-08-09T11:38:32.292Z,91.10
2022-08-09T11:41:06.028Z,91.00
2022-08-09T11:43:43.013Z,91.20
2022-08-09T11:46:11.758Z,91.30
2022-08-09T11:48:50.961Z,91.50
2022-08-09T11:52:49.463Z,91.30
2022-08-09T11:54:28.039Z,90.90
2022-08-09T11:57:56.889Z,90.80
2022-08-09T12:00:28.118Z,91.30
2022-08-09T12:02:57.741Z,91.50
2022-08-09T12:05:37.632Z,91.30
2022-08-09T12:08:12.306Z,91.20
2022-08-09T12:10:53.828Z,90.90
2022-08-09T12:14:07.874Z,91.10
2022-08-09T12:16:37.307Z,90.80
2022-08-09T12:19:09.613Z,90.60
2022-08-09T12:21:48.632Z,91.00
2022-08-09T12:24:24.008Z,91.10
2022-08-09T12:28:59.578Z,91.10
2022-08-09T12:30:01.898Z,90.90
2022-08-09T12:32:43.092Z,90.30
2022-08-09T12:35:17.020Z,90.10
2022-08-09T12:37:51.983Z,90.20
2022-08-09T12:40:23.286Z,89.70
2022-08-09T12:42:54.996Z,89.80
2022-08-09T12:45:33.670Z,90.00
2022-08-09T12:48:04.272Z,89.90
2022-08-09T12:50:32.776Z,90.00
2022-08-09T12:53:17.660Z,90.10
2022-08-09T12:56:15.442Z,90.10
2022-08-09T12:58:42.827Z,90.30
2022-08-09T13:01:28.455Z,89.90
2022-08-09T13:03:59.599Z,89.80
2022-08-09T13:06:34.572Z,88.30
2022-08-09T13:09:07.391Z,89.30
2022-08-09T13:11:39.581Z,90.10
2022-08-09T13:14:42.859Z,90.40
2022-08-09T13:17:04.770Z,89.40
2022-08-09T13:20:07.208Z,87.80
2022-08-09T13:22:36.093Z,88.50
2022-08-09T13:25:14.316Z,89.00
2022-08-09T13:27:48.645Z,89.00
2022-08-09T13:31:11.036Z,89.40
2022-08-09T13:33:23.538Z,89.30
2022-08-09T13:36:24.592Z,90.10
2022-08-09T13:38:55.577Z,90.30
2022-08-09T13:41:58.728Z,88.50
2022-08-09T13:44:16.868Z,88.20
2022-08-09T13:47:27.452Z,88.80
2022-08-09T13:49:39.708Z,88.80
2022-08-09T13:52:24.667Z,88.20
2022-08-09T13:55:00.249Z,88.30
2022-08-09T13:57:39.735Z,88.80
2022-08-09T14:00:13.436Z,88.30
2022-08-09T14:03:04.609Z,88.80
2022-08-09T14:05:57.201Z,87.50
2022-08-09T14:08:23.310Z,87.00
2022-08-09T14:10:53.016Z,88.30
2022-08-09T14:14:16.279Z,87.90
2022-08-09T14:16:14.922Z,88.20
2022-08-09T14:18:49.455Z,88.20
2022-08-09T14:21:20.727Z,87.70
2022-08-09T14:23:57.099Z,87.90
2022-08-09T14:26:32.773Z,87.90
2022-08-09T14:29:07.793Z,88.00
2022-08-09T14:31:51.987Z,87.60
2022-08-09T14:34:31.778Z,87.40
2022-08-09T14:37:02.685Z,87.60
2022-08-09T14:39:46.110Z,86.90
2022-08-09T14:42:30.387Z,86.00
2022-08-09T14:46:39.401Z,86.20
2022-08-09T14:47:58.320Z,86.30
2022-08-09T14:50:31.495Z,86.80
2022-08-09T14:53:01.562Z,87.30
2022-08-09T14:55:32.797Z,86.40
2022-08-09T14:58:02.914Z,86.00
2022-08-09T15:00:32.338Z,85.80
2022-08-09T15:03:03.565Z,86.30
2022-08-09T15:05:36.533Z,85.70
2022-08-09T15:08:05.787Z,85.70
2022-08-09T15:10:35.491Z,86.50
2022-08-09T15:13:05.622Z,87.20
2022-08-09T15:15:38.822Z,86.90
2022-08-09T15:18:12.371Z,86.30
2022-08-09T15:21:58.053Z,85.20
2022-08-09T15:24:01.586Z,85.50
2022-08-09T15:26:31.386Z,85.80
2022-08-09T15:29:04.026Z,85.90
2022-08-09T15:31:41.440Z,86.20
2022-08-09T15:34:18.133Z,85.60
2022-08-09T15:37:03.982Z,85.40
2022-08-09T15:39:44.021Z,85.20
2022-08-09T15:42:21.787Z,85.20
2022-08-09T15:44:50.429Z,85.40
2022-08-09T15:47:22.596Z,85.70
2022-08-09T15:50:03.561Z,86.20
2022-08-09T15:52:35.921Z,85.40
2022-08-09T15:55:04.727Z,85.70
2022-08-09T15:57:34.056Z,85.80
2022-08-09T16:00:03.421Z,85.70
2022-08-09T16:02:31.549Z,85.30
2022-08-09T16:05:04.005Z,85.70
2022-08-09T16:07:39.222Z,84.60
2022-08-09T16:10:38.807Z,85.40
2022-08-09T16:13:03.089Z,86.10
2022-08-09T16:16:11.054Z,86.20
2022-08-09T16:18:20.027Z,86.40
2022-08-09T16:20:49.987Z,86.20
2022-08-09T16:23:19.875Z,85.70
2022-08-09T16:25:50.016Z,86.20
2022-08-09T16:28:18.233Z,86.80
2022-08-09T16:30:58.802Z,87.00
2022-08-09T16:33:31.033Z,87.10
2022-08-09T16:36:09.116Z,87.10
2022-08-09T16:38:44.388Z,86.90
2022-08-09T16:41:24.667Z,86.60
2022-08-09T16:44:08.783Z,86.40
2022-08-09T16:46:39.621Z,86.50
2022-08-09T16:50:30.206Z,85.60
2022-08-09T16:52:11.603Z,86.40
2022-08-09T16:54:41.291Z,86.60
2022-08-09T16:57:10.771Z,86.30
2022-08-09T16:59:38.899Z,86.10
2022-08-09T17:02:13.767Z,86.60
2022-08-09T17:04:46.445Z,87.10
2022-08-09T17:08:43.016Z,87.40
2022-08-09T17:10:09.898Z,87.20
2022-08-09T17:12:39.493Z,87.40
2022-08-09T17:15:31.302Z,87.40
2022-08-09T17:18:00.833Z,87.50
2022-08-09T17:20:36.351Z,87.60
2022-08-09T17:23:10.526Z,87.70
2022-08-09T17:25:44.965Z,88.00
2022-08-09T17:28:21.093Z,88.30
2022-08-09T17:30:49.215Z,88.20
2022-08-09T17:33:22.763Z,87.90
2022-08-09T17:35:51.795Z,88.10
2022-08-09T17:38:32.089Z,88.20
2022-08-09T17:41:06.231Z,88.20
2022-08-09T17:43:37.289Z,88.60
2022-08-09T17:46:08.782Z,89.10
2022-08-09T17:48:51.847Z,88.50
2022-08-09T17:51:21.882Z,88.00
2022-08-09T17:53:54.817Z,88.70
2022-08-09T17:56:29.216Z,89.20
2022-08-09T17:59:11.407Z,89.60
2022-08-09T18:02:07.536Z,89.90
2022-08-09T18:04:33.340Z,90.00
2022-08-09T18:07:04.667Z,90.20
2022-08-09T18:09:41.690Z,90.20
2022-08-09T18:12:17.238Z,90.50
2022-08-09T18:14:53.430Z,90.20
2022-08-09T18:17:27.188Z,90.30
2022-08-09T18:21:00.796Z,90.40
2022-08-09T18:23:05.068Z,90.40
2022-08-09T18:25:53.377Z,90.40
2022-08-09T18:30:39.645Z,90.50
2022-08-09T18:31:14.990Z,90.60
2022-08-09T18:33:53.507Z,90.70
2022-08-09T18:36:25.578Z,90.80
2022-08-09T18:39:02.913Z,90.80
2022-08-09T18:41:34.327Z,91.00
2022-08-09T18:44:13.275Z,91.00
2022-08-09T18:46:49.081Z,91.10
2022-08-09T18:49:19.932Z,91.10
2022-08-09T18:51:57.726Z,91.20
2022-08-09T18:54:28.577Z,91.30
2022-08-09T18:56:57.249Z,91.40
2022-08-09T18:59:52.469Z,91.50
2022-08-09T19:02:30.510Z,91.80
2022-08-09T19:05:04.031Z,91.70
2022-08-09T19:07:59.296Z,91.70
2022-08-09T19:10:37.644Z,91.60
2022-08-09T19:13:20.172Z,91.60
2022-08-09T19:15:52.753Z,91.70
2022-08-09T19:18:34.016Z,91.70
2022-08-09T19:21:09.703Z,91.80
2022-08-09T19:24:33.050Z,91.70
2022-08-09T19:26:29.203Z,91.70
2022-08-09T19:29:01.931Z,91.70
2022-08-09T19:31:45.053Z,91.90
2022-08-09T19:34:22.178Z,91.90
2022-08-09T19:36:53.834Z,92.00
2022-08-09T19:39:43.181Z,92.00
2022-08-09T19:42:14.589Z,92.10
2022-08-09T19:44:43.576Z,92.20
2022-08-09T19:47:13.044Z,92.40
2022-08-09T19:50:09.569Z,92.60
2022-08-09T19:52:30.006Z,92.70
2022-08-09T19:55:03.807Z,92.90
2022-08-09T19:57:32.433Z,93.10
2022-08-09T20:00:06.834Z,93.20
2022-08-09T20:04:12.665Z,93.40
2022-08-09T20:05:26.407Z,93.60
2022-08-09T20:07:59.277Z,93.80
2022-08-09T20:10:34.589Z,93.90
2022-08-09T20:13:04.806Z,94.30
2022-08-09T20:16:38.493Z,94.30
2022-08-09T20:18:27.686Z,94.60
2022-08-09T20:20:56.847Z,94.90
2022-08-09T20:23:39.254Z,95.20
2022-08-09T20:26:08.575Z,95.40
2022-08-09T20:28:47.799Z,95.60
2022-08-09T20:31:18.201Z,95.90
2022-08-09T20:33:52.442Z,96.30
2022-08-09T20:36:27.185Z,96.60
2022-08-09T20:39:28.725Z,97.10
2022-08-09T20:41:44.032Z,97.80
2022-08-09T20:44:14.679Z,98.20
2022-08-09T20:46:44.965Z,98.70
2022-08-09T20:49:15.765Z,99.30
2022-08-09T20:51:50.841Z,99.70
2022-08-09T20:54:19.202Z,99.90
2022-08-09T20:56:49.821Z,99.90
2022-08-09T20:59:25.055Z,99.90
2022-08-09T21:02:11.890Z,99.90
2022-08-09T21:05:55.290Z,99.90
2022-08-09T21:07:40.174Z,99.90
2022-08-09T21:10:10.921Z,99.90
2022-08-09T21:15:34.586Z,99.90
2022-08-09T21:18:11.796Z,99.90
2022-08-09T21:20:54.580Z,99.90
2022-08-09T21:23:26.506Z,99.90
2022-08-09T21:26:11.455Z,99.90
2022-08-09T21:28:39.734Z,99.90
2022-08-09T21:31:24.177Z,99.90
2022-08-09T21:34:12.525Z,99.90
2022-08-09T21:36:45.817Z,99.90
2022-08-09T21:39:28.317Z,99.90
2022-08-09T21:42:11.205Z,99.90
2022-08-09T21:44:39.682Z,99.90
2022-08-09T21:47:13.413Z,99.90
2022-08-09T21:49:46.367Z,99.90
2022-08-09T21:52:20.532Z,99.90
2022-08-09T21:54:59.383Z,99.90
2022-08-09T21:57:39.616Z,99.90
2022-08-09T22:00:25.288Z,99.90
2022-08-09T22:02:58.375Z,99.90
2022-08-09T22:05:37.668Z,99.90
2022-08-09T22:08:14.680Z,99.90
2022-08-09T22:11:00.642Z,99.90
2022-08-09T22:13:35.439Z,99.90
2022-08-09T22:16:07.793Z,99.90
2022-08-09T22:18:37.579Z,99.90
2022-08-09T22:21:09.766Z,99.90
2022-08-09T22:24:01.229Z,99.90
2022-08-09T22:26:34.919Z,99.90
2022-08-09T22:29:08.678Z,99.90
2022-08-09T22:31:44.585Z,99.90
2022-08-09T22:34:25.456Z,99.90
2022-08-09T22:36:54.126Z,99.90
2022-08-09T22:39:57.198Z,99.90
2022-08-09T22:42:22.312Z,99.90
2022-08-09T22:48:06.133Z,99.90
2022-08-09T22:48:14.133Z,99.90
2022-08-09T22:50:30.125Z,99.90
2022-08-09T22:52:58.865Z,99.90
2022-08-09T22:55:39.265Z,99.90
2022-08-09T22:58:30.592Z,99.90
2022-08-09T23:01:02.133Z,99.90
2022-08-09T23:03:31.179Z,99.90
2022-08-09T23:06:29.939Z,99.90
2022-08-09T23:09:04.299Z,99.90
2022-08-09T23:11:33.865Z,99.90
2022-08-09T23:14:16.996Z,99.90
2022-08-09T23:16:47.099Z,99.90
2022-08-09T23:19:15.577Z,99.90
2022-08-09T23:21:43.825Z,99.90
2022-08-09T23:24:11.955Z,99.90
2022-08-09T23:26:41.895Z,99.90
2022-08-09T23:29:13.637Z,99.90
2022-08-09T23:31:41.915Z,99.90
2022-08-09T23:34:10.441Z,99.90
2022-08-09T23:36:38.546Z,99.90
2022-08-09T23:39:08.139Z,99.90
2022-08-09T23:41:36.483Z,99.90
2022-08-09T23:44:06.516Z,99.90
2022-08-09T23:46:34.871Z,99.90
2022-08-09T23:49:03.416Z,99.90
2022-08-09T23:51:31.547Z,99.90
2022-08-09T23:54:02.768Z,99.90
2022-08-09T23:56:53.147Z,99.90
2022-08-09T23:59:22.081Z,99.90
